Time;durP1;ratioP1;P1;durP2;ratioP2;P2;SDS_P1;SDS_P2;PMS_P1;PMS_P2;Temp;Humidity;BMP_temperature;BMP_pressure;BME280_temperature;BME280_humidity;BME280_pressure;Samples;Min_cycle;Max_cycle;Signal;HPM_P1;HPM_P2
2022/08/29 00:00:29;;;;;;;3.53;1.48;;;19.90;99.90;;;;;;5078368;28;20186;-51
2022/08/29 00:02:56;;;;;;;5.85;2.15;;;19.90;99.90;;;;;;5084737;28;20179;-51
2022/08/29 00:05:25;;;;;;;5.45;1.58;;;19.90;99.90;;;;;;5088915;28;20221;-51
2022/08/29 00:07:51;;;;;;;8.85;1.75;;;19.90;99.90;;;;;;5070677;28;20187;-51
2022/08/29 00:10:16;;;;;;;7.22;2.10;;;19.90;99.90;;;;;;5080541;28;20229;-51
2022/08/29 00:12:42;;;;;;;5.18;1.70;;;19.80;99.90;;;;;;5071578;28;20192;-51
2022/08/29 00:15:10;;;;;;;6.43;1.58;;;19.80;99.90;;;;;;5060021;28;20199;-51
2022/08/29 00:17:36;;;;;;;3.10;1.50;;;19.80;99.90;;;;;;5090772;28;20211;-51
2022/08/29 00:20:04;;;;;;;4.57;1.50;;;19.80;99.90;;;;;;5073306;28;20192;-51
2022/08/29 00:22:30;;;;;;;3.55;1.40;;;19.80;99.90;;;;;;5069654;28;20195;-51
2022/08/29 00:24:56;;;;;;;5.78;1.60;;;19.70;99.90;;;;;;5084480;28;20495;-51
2022/08/29 00:27:21;;;;;;;7.65;1.80;;;19.70;99.90;;;;;;5070961;28;20194;-50
2022/08/29 00:29:47;;;;;;;3.10;1.58;;;19.80;99.90;;;;;;5082279;28;20259;-51
2022/08/29 00:32:13;;;;;;;2.78;1.60;;;19.80;99.90;;;;;;5082000;28;20176;-50
2022/08/29 00:34:38;;;;;;;7.25;1.65;;;19.70;99.90;;;;;;5082453;28;20180;-51
2022/08/29 00:37:04;;;;;;;5.63;2.00;;;19.70;99.90;;;;;;5083566;28;20639;-52
2022/08/29 00:39:30;;;;;;;5.18;1.40;;;19.70;99.90;;;;;;5080888;28;20258;-51
2022/08/29 00:41:56;;;;;;;7.30;1.30;;;19.70;99.90;;;;;;5075198;28;20349;-51
2022/08/29 00:44:21;;;;;;;3.70;1.73;;;19.70;99.90;;;;;;5071551;28;20253;-51
2022/08/29 00:46:51;;;;;;;4.47;1.60;;;19.70;99.90;;;;;;5090559;28;20597;-50
2022/08/29 00:49:23;;;;;;;3.67;1.52;;;19.70;99.90;;;;;;5077841;28;20180;-51
2022/08/29 00:51:49;;;;;;;5.50;1.67;;;19.60;99.90;;;;;;5081262;28;20264;-51
2022/08/29 00:54:15;;;;;;;7.95;1.42;;;19.60;99.90;;;;;;5081726;28;20176;-51
2022/08/29 00:56:42;;;;;;;6.40;1.42;;;19.60;99.90;;;;;;5076701;28;20217;-51
2022/08/29 00:59:10;;;;;;;5.07;1.40;;;19.60;99.90;;;;;;5072840;28;20190;-56
2022/08/29 01:01:36;;;;;;;3.95;1.55;;;19.60;99.90;;;;;;5067932;28;20286;-57
2022/08/29 01:04:02;;;;;;;5.60;1.90;;;19.50;99.90;;;;;;5071677;28;20173;-56
2022/08/29 01:06:30;;;;;;;4.43;1.70;;;19.50;99.90;;;;;;5088923;28;20168;-56
2022/08/29 01:08:56;;;;;;;3.47;1.73;;;19.50;99.90;;;;;;5086358;28;20176;-57
2022/08/29 01:14:06;;;;;;;7.10;1.73;;;19.50;99.90;;;;;;5063403;28;20249;-57
2022/08/29 01:16:32;;;;;;;4.72;1.85;;;19.50;99.90;;;;;;5072507;28;20667;-57
2022/08/29 01:19:19;;;;;;;6.00;1.70;;;19.50;99.90;;;;;;5072802;28;20226;-57
2022/08/29 01:22:29;;;;;;;3.97;1.63;;;19.40;99.90;;;;;;5080815;28;20210;-57
2022/08/29 01:24:56;;;;;;;5.53;1.70;;;19.40;99.90;;;;;;5077132;28;20686;-57
2022/08/29 01:27:27;;;;;;;7.50;1.67;;;19.40;99.90;;;;;;5074124;28;20178;-57
2022/08/29 01:29:52;;;;;;;4.50;1.63;;;19.40;99.90;;;;;;5087274;28;20168;-57
2022/08/29 01:32:18;;;;;;;4.65;1.63;;;19.40;99.90;;;;;;5089040;28;20182;-56
2022/08/29 01:34:44;;;;;;;4.20;1.25;;;19.40;99.90;;;;;;5082802;28;20195;-57
2022/08/29 01:37:12;;;;;;;4.85;1.65;;;19.40;99.90;;;;;;5081597;28;20212;-57
2022/08/29 01:39:40;;;;;;;3.75;1.65;;;19.40;99.90;;;;;;5087755;28;20167;-56
2022/08/29 01:42:19;;;;;;;4.70;1.50;;;19.40;99.90;;;;;;5074864;28;20607;-57
2022/08/29 01:44:57;;;;;;;8.25;1.80;;;19.30;99.90;;;;;;5085844;28;20182;-56
2022/08/29 01:47:28;;;;;;;4.43;1.67;;;19.30;99.90;;;;;;5091213;28;20245;-57
2022/08/29 01:49:53;;;;;;;4.82;1.88;;;19.20;99.90;;;;;;5078571;28;20657;-56
2022/08/29 01:52:19;;;;;;;4.75;1.70;;;19.30;99.90;;;;;;5074657;28;20185;-55
2022/08/29 01:54:45;;;;;;;4.35;1.48;;;19.30;99.90;;;;;;5087991;28;20218;-56
2022/08/29 01:57:13;;;;;;;3.88;1.60;;;19.20;99.90;;;;;;5077949;28;20208;-55
2022/08/29 01:59:39;;;;;;;8.38;1.83;;;19.20;99.90;;;;;;5081007;28;20535;-55
2022/08/29 02:02:15;;;;;;;6.50;1.95;;;19.20;99.90;;;;;;5076197;28;20197;-56
2022/08/29 02:04:42;;;;;;;5.47;2.13;;;19.20;99.90;;;;;;5088610;28;20176;-56
2022/08/29 02:07:08;;;;;;;6.75;1.58;;;19.20;99.90;;;;;;5082790;28;20191;-56
2022/08/29 02:09:33;;;;;;;9.40;1.77;;;19.10;99.90;;;;;;5085099;28;20717;-56
2022/08/29 02:12:01;;;;;;;6.13;1.77;;;19.10;99.90;;;;;;5076039;28;20184;-55
2022/08/29 02:14:29;;;;;;;7.25;1.77;;;19.10;99.90;;;;;;5077368;28;20169;-55
2022/08/29 02:16:54;;;;;;;7.22;1.65;;;19.10;99.90;;;;;;5078054;28;20218;-56
2022/08/29 02:19:20;;;;;;;5.10;1.77;;;19.00;99.90;;;;;;5077695;28;20172;-55
2022/08/29 02:21:46;;;;;;;6.15;1.95;;;19.00;99.90;;;;;;5070980;28;20266;-56
2022/08/29 02:24:12;;;;;;;11.15;2.13;;;18.90;99.90;;;;;;5072913;28;20252;-57
2022/08/29 02:26:38;;;;;;;7.60;1.85;;;18.90;99.90;;;;;;5086193;28;20226;-56
2022/08/29 02:29:04;;;;;;;4.07;1.40;;;18.90;99.90;;;;;;5083530;28;20581;-56
2022/08/29 02:31:29;;;;;;;4.68;1.83;;;18.90;99.90;;;;;;5080746;28;20667;-56
2022/08/29 02:33:55;;;;;;;6.15;1.83;;;18.80;99.90;;;;;;5077585;28;20536;-55
2022/08/29 02:36:23;;;;;;;7.57;1.92;;;18.80;99.90;;;;;;5090792;28;20226;-54
2022/08/29 02:38:49;;;;;;;4.88;1.80;;;18.80;99.90;;;;;;5077090;28;20212;-55
2022/08/29 02:41:15;;;;;;;4.05;1.65;;;18.80;99.90;;;;;;5073464;28;20169;-56
2022/08/29 02:43:41;;;;;;;7.25;1.80;;;18.70;99.90;;;;;;5086920;28;20205;-55
2022/08/29 02:46:07;;;;;;;3.65;1.48;;;18.70;99.90;;;;;;5071458;28;20167;-55
2022/08/29 02:48:33;;;;;;;4.57;1.77;;;18.70;99.90;;;;;;5076589;28;20246;-56
2022/08/29 02:50:58;;;;;;;2.67;1.48;;;18.70;99.90;;;;;;5089557;28;20558;-55
2022/08/29 02:53:27;;;;;;;4.85;1.90;;;18.70;99.90;;;;;;5079387;28;20710;-55
2022/08/29 02:55:53;;;;;;;4.28;2.40;;;18.60;99.90;;;;;;5085190;28;20187;-55
2022/08/29 02:58:21;;;;;;;5.50;1.90;;;18.60;99.90;;;;;;5088500;28;20295;-55
2022/08/29 03:00:47;;;;;;;7.10;1.70;;;18.60;99.90;;;;;;5075959;28;20656;-56
2022/08/29 03:03:13;;;;;;;3.28;1.45;;;18.60;99.90;;;;;;5082210;28;20720;-55
2022/08/29 03:05:40;;;;;;;7.20;1.85;;;18.60;99.90;;;;;;5082416;28;20275;-56
2022/08/29 03:08:12;;;;;;;4.03;2.05;;;18.60;99.90;;;;;;5088340;28;20215;-55
2022/08/29 03:10:39;;;;;;;7.47;2.35;;;18.60;99.90;;;;;;5082676;28;20176;-56
2022/08/29 03:13:05;;;;;;;5.05;1.50;;;18.50;99.90;;;;;;5075582;28;20187;-55
2022/08/29 03:15:31;;;;;;;5.95;2.13;;;18.50;99.90;;;;;;5080735;28;20168;-56
2022/08/29 03:17:57;;;;;;;5.68;2.03;;;18.40;99.90;;;;;;5072371;28;20709;-57
2022/08/29 03:20:24;;;;;;;4.25;1.77;;;18.40;99.90;;;;;;5079198;28;20176;-57
2022/08/29 03:22:51;;;;;;;5.35;2.15;;;18.30;99.90;;;;;;5071909;28;20180;-57
2022/08/29 03:25:17;;;;;;;5.95;1.65;;;18.40;99.90;;;;;;5072129;28;20168;-56
2022/08/29 03:27:43;;;;;;;5.47;1.88;;;18.30;99.90;;;;;;5070267;28;20225;-56
2022/08/29 03:30:12;;;;;;;5.15;1.75;;;18.20;99.90;;;;;;5081761;28;20435;-57
2022/08/29 03:32:38;;;;;;;6.93;2.10;;;18.20;99.90;;;;;;5079722;28;20258;-56
2022/08/29 03:35:05;;;;;;;4.43;1.73;;;18.10;99.90;;;;;;5080270;28;20264;-56
2022/08/29 03:37:31;;;;;;;6.22;1.88;;;18.00;99.90;;;;;;5087066;28;20215;-57
2022/08/29 03:39:57;;;;;;;4.35;1.70;;;18.00;99.90;;;;;;5087165;28;20180;-57
2022/08/29 03:42:23;;;;;;;6.95;2.22;;;18.00;99.90;;;;;;5089920;28;20623;-57
2022/08/29 03:44:48;;;;;;;11.30;2.42;;;18.00;99.90;;;;;;5074755;28;20268;-57
2022/08/29 03:47:14;;;;;;;8.20;1.70;;;17.90;99.90;;;;;;5074973;28;20177;-57
2022/08/29 03:49:40;;;;;;;6.32;2.00;;;17.80;99.90;;;;;;5075943;28;20204;-57
2022/08/29 03:52:08;;;;;;;5.03;1.88;;;17.80;99.90;;;;;;5084921;28;20574;-57
2022/08/29 03:54:34;;;;;;;8.73;1.88;;;17.80;99.90;;;;;;5079590;28;20196;-58
2022/08/29 03:57:00;;;;;;;5.38;2.08;;;17.70;99.90;;;;;;5070098;28;20201;-57
2022/08/29 03:59:27;;;;;;;4.90;1.80;;;17.70;99.90;;;;;;5069348;28;20173;-57
2022/08/29 04:01:52;;;;;;;5.45;1.80;;;17.70;99.90;;;;;;5075758;28;20175;-57
2022/08/29 04:07:08;;;;;;;7.65;1.80;;;17.60;99.90;;;;;;5083475;28;20229;-57
2022/08/29 04:09:35;;;;;;;4.90;1.67;;;17.50;99.90;;;;;;5086284;28;20466;-58
2022/08/29 04:12:01;;;;;;;5.10;1.80;;;17.50;99.90;;;;;;5077882;28;20252;-56
2022/08/29 04:14:28;;;;;;;6.05;2.08;;;17.50;99.90;;;;;;5082658;28;20164;-56
2022/08/29 04:16:54;;;;;;;9.82;2.17;;;17.40;99.90;;;;;;5076874;28;20204;-57
2022/08/29 04:19:20;;;;;;;6.78;1.83;;;17.40;99.90;;;;;;5085079;28;20296;-56
2022/08/29 04:21:47;;;;;;;6.38;1.98;;;17.40;99.90;;;;;;5079398;28;20578;-57
2022/08/29 04:24:18;;;;;;;3.67;2.03;;;17.40;99.90;;;;;;5078996;28;20184;-57
2022/08/29 04:26:44;;;;;;;3.55;1.50;;;17.30;99.90;;;;;;5073394;28;20203;-56
2022/08/29 04:29:11;;;;;;;6.20;2.00;;;17.30;99.90;;;;;;5080176;28;20176;-55
2022/08/29 04:31:37;;;;;;;9.05;2.00;;;17.30;99.90;;;;;;5080027;28;20677;-56
2022/08/29 04:34:05;;;;;;;5.55;1.95;;;17.30;99.90;;;;;;5083658;28;20266;-56
2022/08/29 04:36:36;;;;;;;5.80;2.05;;;17.20;99.90;;;;;;5078036;28;20228;-57
2022/08/29 04:39:03;;;;;;;6.75;1.80;;;17.20;99.90;;;;;;5077307;28;20263;-57
2022/08/29 04:41:29;;;;;;;6.28;2.00;;;17.10;99.90;;;;;;5072004;28;20168;-55
2022/08/29 04:43:55;;;;;;;3.08;1.55;;;17.10;99.90;;;;;;5090267;28;20530;-55
2022/08/29 04:46:21;;;;;;;4.70;1.98;;;17.10;99.90;;;;;;5069783;28;20164;-54
2022/08/29 04:48:46;;;;;;;5.75;2.00;;;17.10;99.90;;;;;;5075452;28;20182;-55
2022/08/29 04:51:12;;;;;;;3.38;1.70;;;17.00;99.90;;;;;;5081998;28;20592;-55
2022/08/29 04:53:38;;;;;;;9.07;2.00;;;17.00;99.90;;;;;;5081387;28;20180;-54
2022/08/29 04:56:07;;;;;;;5.90;1.73;;;17.00;99.90;;;;;;5087391;28;20684;-55
2022/08/29 04:58:35;;;;;;;5.90;1.50;;;16.90;99.90;;;;;;5070000;28;20271;-54
2022/08/29 05:01:02;;;;;;;4.88;2.00;;;16.90;99.90;;;;;;5076202;28;20175;-55
2022/08/29 05:03:28;;;;;;;7.10;1.98;;;16.90;99.90;;;;;;5087366;28;20196;-55
2022/08/29 05:05:59;;;;;;;8.30;1.95;;;16.90;99.90;;;;;;5084949;28;20797;-55
2022/08/29 05:08:25;;;;;;;9.02;2.20;;;16.80;99.90;;;;;;5077406;28;20168;-56
2022/08/29 05:10:51;;;;;;;4.30;1.70;;;16.80;99.90;;;;;;5079258;28;20199;-55
2022/08/29 05:13:17;;;;;;;6.43;2.58;;;16.80;99.90;;;;;;5082055;28;20658;-55
2022/08/29 05:15:44;;;;;;;6.72;1.88;;;16.80;99.90;;;;;;5078948;28;20216;-55
2022/08/29 05:18:12;;;;;;;3.47;2.13;;;16.80;99.90;;;;;;5084550;28;20653;-55
2022/08/29 05:20:42;;;;;;;7.38;2.10;;;16.70;99.90;;;;;;5071122;28;20192;-55
2022/08/29 05:23:08;;;;;;;8.40;1.90;;;16.70;99.90;;;;;;5085946;28;20173;-56
2022/08/29 05:25:35;;;;;;;5.95;2.13;;;16.70;99.90;;;;;;5088815;28;20172;-57
2022/08/29 05:28:00;;;;;;;5.38;2.40;;;16.70;99.90;;;;;;5075568;28;20212;-56
2022/08/29 05:30:27;;;;;;;6.63;1.73;;;16.70;99.90;;;;;;5069138;28;20387;-56
2022/08/29 05:32:53;;;;;;;7.25;2.08;;;16.60;99.90;;;;;;5069374;28;20259;-54
2022/08/29 05:35:20;;;;;;;7.07;1.70;;;16.60;99.90;;;;;;5083107;28;20220;-52
2022/08/29 05:37:46;;;;;;;6.35;2.00;;;16.70;99.90;;;;;;5069739;28;20161;-52
2022/08/29 05:40:11;;;;;;;6.97;1.90;;;16.70;99.90;;;;;;5070222;28;20234;-52
2022/08/29 05:42:38;;;;;;;12.35;2.33;;;16.70;99.90;;;;;;5075983;28;20213;-52
2022/08/29 05:45:04;;;;;;;4.60;1.60;;;16.70;99.90;;;;;;5068552;28;20523;-52
2022/08/29 05:47:30;;;;;;;4.78;1.70;;;16.80;99.90;;;;;;5072131;28;20204;-52
2022/08/29 05:49:57;;;;;;;4.93;1.88;;;16.70;99.90;;;;;;5086682;28;20203;-52
2022/08/29 05:52:23;;;;;;;4.88;1.80;;;16.80;99.90;;;;;;5072690;28;20169;-52
2022/08/29 05:54:49;;;;;;;4.43;1.75;;;16.80;99.90;;;;;;5085094;28;20176;-52
2022/08/29 05:57:18;;;;;;;7.50;2.17;;;16.80;99.90;;;;;;5075006;28;20674;-52
2022/08/29 05:59:44;;;;;;;5.18;1.80;;;16.80;99.90;;;;;;5087710;28;20207;-52
2022/08/29 06:02:10;;;;;;;6.07;1.92;;;16.80;99.90;;;;;;5072842;28;20169;-55
2022/08/29 06:04:36;;;;;;;7.35;1.95;;;16.80;99.90;;;;;;5079331;28;20702;-57
2022/08/29 06:07:03;;;;;;;6.63;1.67;;;16.80;99.90;;;;;;5087640;28;20208;-51
2022/08/29 06:09:29;;;;;;;7.97;1.95;;;16.80;99.90;;;;;;5073182;28;20281;-52
2022/08/29 06:11:57;;;;;;;5.50;2.10;;;16.90;99.90;;;;;;5079897;28;20231;-53
2022/08/29 06:14:24;;;;;;;4.07;1.70;;;16.90;99.90;;;;;;5089827;28;20180;-53
2022/08/29 06:16:50;;;;;;;5.57;2.15;;;16.90;99.90;;;;;;5073826;28;20176;-53
2022/08/29 06:19:16;;;;;;;5.40;2.08;;;17.00;99.90;;;;;;5072168;28;20164;-53
2022/08/29 06:21:42;;;;;;;4.32;1.65;;;17.00;99.90;;;;;;5072951;28;20168;-52
2022/08/29 06:24:07;;;;;;;4.38;1.52;;;17.10;99.90;;;;;;5072303;28;20506;-51
2022/08/29 06:26:34;;;;;;;7.05;1.60;;;17.10;99.90;;;;;;5074256;28;20211;-51
2022/08/29 06:29:04;;;;;;;6.75;2.00;;;17.10;99.90;;;;;;5084430;28;20184;-52
2022/08/29 06:31:30;;;;;;;6.93;1.92;;;17.10;99.90;;;;;;5072346;28;20230;-52
2022/08/29 06:33:58;;;;;;;4.60;1.60;;;17.20;99.90;;;;;;5084014;28;20176;-51
2022/08/29 06:36:25;;;;;;;3.95;1.58;;;17.20;99.90;;;;;;5072581;28;20274;-52
2022/08/29 06:38:54;;;;;;;4.75;1.95;;;17.20;99.90;;;;;;5079962;28;20558;-51
2022/08/29 06:41:20;;;;;;;6.57;1.90;;;17.30;99.90;;;;;;5071798;28;20169;-52
2022/08/29 06:43:46;;;;;;;6.75;1.70;;;17.30;99.90;;;;;;5072375;28;20662;-53
2022/08/29 06:46:24;;;;;;;9.30;2.08;;;17.40;99.90;;;;;;5072746;28;20701;-53
2022/08/29 06:48:51;;;;;;;5.97;1.83;;;17.40;99.90;;;;;;5083213;28;20226;-53
2022/08/29 06:51:16;;;;;;;5.65;1.60;;;17.40;99.90;;;;;;5092797;28;20179;-53
2022/08/29 06:53:43;;;;;;;6.45;1.77;;;17.50;99.90;;;;;;5072907;28;20188;-53
2022/08/29 06:56:08;;;;;;;4.53;1.52;;;17.60;99.90;;;;;;5072561;28;20168;-53
2022/08/29 06:58:34;;;;;;;5.43;1.88;;;17.60;99.90;;;;;;5072533;28;20689;-53
2022/08/29 07:01:12;;;;;;;4.93;1.65;;;17.70;99.90;;;;;;5072820;28;20226;-53
2022/08/29 07:03:38;;;;;;;5.03;1.70;;;17.80;99.90;;;;;;5077209;28;20168;-53
2022/08/29 07:06:04;;;;;;;4.78;1.55;;;17.80;99.90;;;;;;5079763;28;20676;-53
2022/08/29 07:08:31;;;;;;;3.50;1.55;;;17.80;99.90;;;;;;5070877;28;20215;-54
2022/08/29 07:10:57;;;;;;;5.50;1.60;;;17.90;99.90;;;;;;5074349;28;20180;-53
2022/08/29 07:13:22;;;;;;;4.20;1.60;;;17.90;99.90;;;;;;5075611;28;20180;-54
2022/08/29 07:15:48;;;;;;;6.43;1.60;;;17.90;99.90;;;;;;5071742;28;20195;-54
2022/08/29 07:18:14;;;;;;;5.40;1.90;;;17.90;99.90;;;;;;5082876;28;20669;-53
2022/08/29 07:20:40;;;;;;;4.50;1.30;;;17.90;99.90;;;;;;5071287;28;20175;-53
2022/08/29 07:23:06;;;;;;;5.25;1.50;;;17.90;99.90;;;;;;5070798;28;20177;-53
2022/08/29 07:25:32;;;;;;;5.90;1.40;;;18.10;99.90;;;;;;5071269;28;20219;-53
2022/08/29 07:27:58;;;;;;;6.53;2.00;;;18.20;99.90;;;;;;5074400;28;20211;-53
2022/08/29 07:30:25;;;;;;;9.40;1.80;;;18.30;99.90;;;;;;5081076;28;20176;-52
2022/08/29 07:32:51;;;;;;;2.65;1.30;;;18.40;99.90;;;;;;5069564;28;20601;-53
2022/08/29 07:35:17;;;;;;;6.03;1.70;;;18.50;99.90;;;;;;5071166;28;21250;-53
2022/08/29 07:37:43;;;;;;;30.10;1.92;;;18.70;99.90;;;;;;5070891;28;20635;-53
2022/08/29 07:40:11;;;;;;;6.80;1.45;;;18.90;99.90;;;;;;5070740;28;20169;-53
2022/08/29 07:42:37;;;;;;;4.97;1.48;;;19.00;99.90;;;;;;5072780;28;20709;-52
2022/08/29 07:45:06;;;;;;;4.60;1.58;;;19.20;99.90;;;;;;5071717;28;20172;-53
2022/08/29 07:47:33;;;;;;;3.95;1.23;;;19.30;99.90;;;;;;5081647;28;20210;-54
2022/08/29 07:50:00;;;;;;;4.75;1.25;;;19.50;99.90;;;;;;5085866;28;20266;-52
2022/08/29 07:52:28;;;;;;;3.70;1.23;;;19.60;99.90;;;;;;5090680;28;20250;-53
2022/08/29 07:54:54;;;;;;;5.70;1.63;;;19.70;99.90;;;;;;5088329;28;20176;-53
2022/08/29 07:57:19;;;;;;;3.85;1.65;;;19.80;99.90;;;;;;5088465;28;20196;-53
2022/08/29 07:59:45;;;;;;;5.53;1.40;;;19.80;99.90;;;;;;5081654;28;20658;-52
2022/08/29 08:02:11;;;;;;;7.47;1.27;;;19.80;99.90;;;;;;5082351;28;21234;-54
2022/08/29 08:04:37;;;;;;;6.97;1.50;;;19.90;99.90;;;;;;5090599;28;20650;-55
2022/08/29 08:07:03;;;;;;;5.88;1.48;;;19.90;99.90;;;;;;5090569;28;20239;-56
2022/08/29 08:09:29;;;;;;;6.00;1.40;;;19.90;99.90;;;;;;5087509;28;20644;-57
2022/08/29 08:11:54;;;;;;;4.97;1.75;;;20.00;99.90;;;;;;5069275;28;20250;-56
2022/08/29 08:14:20;;;;;;;5.63;1.50;;;20.00;99.90;;;;;;5070140;28;20192;-55
2022/08/29 08:16:46;;;;;;;5.25;1.30;;;20.10;99.90;;;;;;5070586;28;20487;-56
2022/08/29 08:19:13;;;;;;;5.00;1.50;;;20.20;99.90;;;;;;5070241;28;20253;-58
2022/08/29 08:21:39;;;;;;;4.55;1.33;;;20.40;99.90;;;;;;5070287;28;20176;-57
2022/08/29 08:24:05;;;;;;;7.75;1.85;;;20.60;99.90;;;;;;5070116;28;20387;-56
2022/08/29 08:26:31;;;;;;;3.92;1.50;;;20.80;99.90;;;;;;5069239;28;20180;-56
2022/08/29 08:28:58;;;;;;;11.13;1.40;;;20.80;99.90;;;;;;5071371;28;20164;-55
2022/08/29 08:31:23;;;;;;;7.90;1.42;;;20.90;99.90;;;;;;5069390;28;20168;-55
2022/08/29 08:33:50;;;;;;;4.25;1.58;;;20.90;99.90;;;;;;5076661;28;20281;-56
2022/08/29 08:36:19;;;;;;;4.18;1.33;;;21.00;99.90;;;;;;5085810;28;20643;-56
2022/08/29 08:38:46;;;;;;;3.13;1.25;;;21.10;99.90;;;;;;5076529;28;20191;-56
2022/08/29 08:41:32;;;;;;;4.50;1.13;;;21.10;99.90;;;;;;5089238;28;20196;-56
2022/08/29 08:44:00;;;;;;;2.78;1.25;;;20.90;99.90;;;;;;5090150;28;20218;-56
2022/08/29 08:46:35;;;;;;;4.45;1.10;;;20.80;99.90;;;;;;5073947;28;20192;-57
2022/08/29 08:49:05;;;;;;;6.28;1.70;;;20.80;99.90;;;;;;5072550;28;20416;-56
2022/08/29 08:51:34;;;;;;;1.90;0.88;;;20.90;99.90;;;;;;5089231;28;20328;-55
2022/08/29 08:54:03;;;;;;;5.03;1.15;;;21.20;99.90;;;;;;5089171;28;20186;-55
2022/08/29 08:56:37;;;;;;;3.75;1.48;;;22.50;99.90;;;;;;5090338;28;20822;-56
2022/08/29 08:59:29;;;;;;;5.10;1.17;;;23.50;99.90;;;;;;5090664;28;20642;-57
2022/08/29 09:02:33;;;;;;;5.25;1.58;;;24.50;99.90;;;;;;5089924;28;20198;-60
2022/08/29 09:05:26;;;;;;;5.68;1.40;;;25.30;99.90;;;;;;5086998;28;20198;-57
2022/08/29 09:08:03;;;;;;;5.93;1.23;;;25.30;99.90;;;;;;5048758;28;20271;-57
2022/08/29 09:10:51;;;;;;;4.43;1.20;;;25.70;99.90;;;;;;5048153;28;20314;-57
2022/08/29 09:13:55;;;;;;;2.33;1.08;;;25.80;99.90;;;;;;5050198;28;20172;-57
2022/08/29 09:16:23;;;;;;;2.47;1.00;;;25.70;99.90;;;;;;5050059;28;20191;-56
2022/08/29 09:18:49;;;;;;;5.05;1.35;;;25.30;99.90;;;;;;5049878;28;20636;-55
2022/08/29 09:21:20;;;;;;;2.55;1.23;;;25.00;99.90;;;;;;5049954;28;20238;-56
2022/08/29 09:23:49;;;;;;;2.58;0.90;;;24.80;99.90;;;;;;5049122;28;20162;-57
2022/08/29 09:26:17;;;;;;;6.88;1.30;;;24.40;99.90;;;;;;5048308;28;20659;-57
2022/08/29 09:28:43;;;;;;;3.55;1.20;;;24.30;99.90;;;;;;5048295;28;20213;-57
2022/08/29 09:31:26;;;;;;;5.30;1.45;;;24.10;99.90;;;;;;5051132;28;20219;-56
2022/08/29 09:34:03;;;;;;;3.08;0.98;;;23.80;99.90;;;;;;5052492;28;20627;-56
2022/08/29 09:36:51;;;;;;;5.15;1.20;;;23.40;99.90;;;;;;5051800;28;20218;-56
2022/08/29 09:39:30;;;;;;;4.28;1.02;;;23.50;99.90;;;;;;5053229;28;20177;-56
2022/08/29 09:42:10;;;;;;;4.07;1.27;;;23.80;99.90;;;;;;5053983;28;20184;-56
2022/08/29 09:44:37;;;;;;;2.47;0.95;;;24.10;99.90;;;;;;5054205;28;20176;-56
2022/08/29 09:47:26;;;;;;;2.13;0.90;;;24.40;99.90;;;;;;5054073;28;20223;-56
2022/08/29 09:50:11;;;;;;;3.05;1.10;;;24.70;99.90;;;;;;5053973;28;20174;-57
2022/08/29 09:52:51;;;;;;;3.85;1.15;;;25.00;99.90;;;;;;5053960;28;20177;-56
2022/08/29 09:55:21;;;;;;;2.50;0.90;;;25.10;99.90;;;;;;5053884;28;20279;-56
2022/08/29 09:57:54;;;;;;;4.05;1.02;;;24.90;99.90;;;;;;5053908;28;20528;-57
2022/08/29 10:00:26;;;;;;;2.92;0.90;;;25.30;99.90;;;;;;5086050;28;20238;-57
2022/08/29 10:02:58;;;;;;;2.90;0.93;;;25.60;99.90;;;;;;5053737;28;20200;-57
2022/08/29 10:05:28;;;;;;;2.17;1.00;;;25.70;99.90;;;;;;5053814;28;20173;-58
2022/08/29 10:07:56;;;;;;;2.53;1.02;;;25.60;99.90;;;;;;5053520;28;20209;-57
2022/08/29 10:10:25;;;;;;;2.17;1.00;;;25.40;99.90;;;;;;5053569;28;20214;-57
2022/08/29 10:13:12;;;;;;;3.45;1.30;;;25.50;99.90;;;;;;5053587;28;20712;-57
2022/08/29 10:15:48;;;;;;;4.22;0.90;;;26.00;99.90;;;;;;5053524;28;20260;-56
2022/08/29 10:18:35;;;;;;;2.72;0.73;;;26.70;99.90;;;;;;5053382;28;20169;-57
2022/08/29 10:21:06;;;;;;;2.50;0.95;;;28.20;99.90;;;;;;5053297;28;20184;-58
2022/08/29 10:24:09;;;;;;;5.82;0.80;;;28.30;99.90;;;;;;5053257;28;20174;-58
2022/08/29 10:27:19;;;;;;;2.50;0.80;;;28.50;99.90;;;;;;5053153;28;20176;-57
2022/08/29 10:30:14;;;;;;;2.45;0.82;;;28.70;99.90;;;;;;5052988;28;20189;-58
2022/08/29 10:32:52;;;;;;;1.85;0.77;;;30.10;99.90;;;;;;5050774;28;20205;-57
2022/08/29 10:35:28;;;;;;;2.90;0.90;;;30.60;99.90;;;;;;5052843;28;20177;-57
2022/08/29 10:38:01;;;;;;;4.65;1.10;;;31.40;99.90;;;;;;5085073;28;20179;-57
2022/08/29 10:40:42;;;;;;;2.72;0.98;;;31.40;99.90;;;;;;5052833;28;20173;-56
2022/08/29 10:43:35;;;;;;;2.80;0.68;;;32.30;99.90;;;;;;5084463;28;20226;-57
2022/08/29 10:46:35;;;;;;;5.25;0.88;;;32.70;99.90;;;;;;5052981;28;20177;-58
2022/08/29 10:49:22;;;;;;;2.00;0.73;;;34.00;99.90;;;;;;5052816;28;20197;-57
2022/08/29 10:52:02;;;;;;;1.38;0.80;;;33.00;99.90;;;;;;5052770;28;20252;-57
2022/08/29 10:54:46;;;;;;;3.30;0.80;;;33.10;99.90;;;;;;5052528;28;20193;-58
2022/08/29 10:57:36;;;;;;;3.20;0.82;;;34.30;99.90;;;;;;5052530;28;20188;-58
2022/08/29 11:00:17;;;;;;;3.45;0.90;;;33.00;99.90;;;;;;5052307;28;20648;-57
2022/08/29 11:02:51;;;;;;;4.00;0.85;;;31.60;99.90;;;;;;5052647;28;20181;-58
2022/08/29 11:05:31;;;;;;;4.05;0.93;;;30.10;99.90;;;;;;5052481;28;20219;-56
2022/08/29 11:08:22;;;;;;;5.43;1.05;;;28.70;99.90;;;;;;5052572;28;20212;-57
2022/08/29 11:10:51;;;;;;;1.83;0.98;;;27.70;99.90;;;;;;5049200;28;20766;-56
2022/08/29 11:13:31;;;;;;;4.43;1.00;;;26.90;99.90;;;;;;5052451;28;20182;-56
2022/08/29 11:16:11;;;;;;;1.75;0.82;;;26.50;99.90;;;;;;5052414;28;20170;-57
2022/08/29 11:18:51;;;;;;;2.60;0.90;;;26.00;99.90;;;;;;5052499;28;20185;-57
2022/08/29 11:21:29;;;;;;;3.47;1.20;;;25.60;99.90;;;;;;5052296;28;20184;-56
2022/08/29 11:23:57;;;;;;;6.88;1.38;;;25.50;99.90;;;;;;5052045;28;20180;-56
2022/08/29 11:26:59;;;;;;;1.60;0.90;;;26.90;99.90;;;;;;5052116;28;20173;-58
2022/08/29 11:29:32;;;;;;;1.95;0.90;;;30.30;99.90;;;;;;5052080;28;20208;-57
2022/08/29 11:32:30;;;;;;;2.85;1.35;;;33.30;99.90;;;;;;5052060;28;20256;-57
2022/08/29 11:35:22;;;;;;;2.35;0.85;;;35.70;99.90;;;;;;5051979;28;20694;-57
2022/08/29 11:37:48;;;;;;;2.00;0.90;;;36.70;99.90;;;;;;5050584;28;20294;-57
2022/08/29 11:40:36;;;;;;;3.63;1.27;;;38.10;99.90;;;;;;5051828;28;20181;-57
2022/08/29 11:43:04;;;;;;;3.63;1.20;;;38.70;99.90;;;;;;5051557;28;20177;-58
2022/08/29 11:45:36;;;;;;;3.55;1.10;;;39.20;99.90;;;;;;5051763;28;20260;-58
2022/08/29 11:48:34;;;;;;;6.60;2.70;;;39.20;99.90;;;;;;5051601;28;20443;-56
2022/08/29 11:51:36;;;;;;;2.38;1.00;;;38.20;99.90;;;;;;5049367;28;20176;-57
2022/08/29 11:54:23;;;;;;;3.17;1.27;;;35.50;99.90;;;;;;5050348;28;20522;-57
2022/08/29 11:56:50;;;;;;;3.08;1.27;;;32.80;99.90;;;;;;5051366;28;20707;-57
2022/08/29 11:59:43;;;;;;;5.65;1.23;;;30.90;99.90;;;;;;5050304;28;20529;-57
2022/08/29 12:02:29;;;;;;;1.70;1.13;;;29.40;99.90;;;;;;5051454;28;20169;-57
2022/08/29 12:05:04;;;;;;;3.17;1.27;;;29.30;99.90;;;;;;5051204;28;20262;-57
2022/08/29 12:07:36;;;;;;;3.65;1.30;;;31.90;99.90;;;;;;5049795;28;20207;-56
2022/08/29 12:10:22;;;;;;;2.80;1.63;;;32.40;99.90;;;;;;5051196;28;20173;-57
2022/08/29 12:12:49;;;;;;;2.67;1.20;;;31.80;99.90;;;;;;5051273;28;20181;-58
2022/08/29 12:15:31;;;;;;;2.90;1.50;;;30.80;99.90;;;;;;5051304;28;20639;-57
2022/08/29 12:18:11;;;;;;;2.75;1.50;;;29.90;99.90;;;;;;5051024;28;20184;-57
2022/08/29 12:20:46;;;;;;;3.67;1.40;;;28.90;99.90;;;;;;5051261;28;20383;-56
2022/08/29 12:23:12;;;;;;;2.38;1.60;;;28.20;99.90;;;;;;5051139;28;20172;-56
2022/08/29 12:25:55;;;;;;;2.60;1.58;;;27.70;99.90;;;;;;5050904;28;20693;-57
2022/08/29 12:28:20;;;;;;;4.85;1.70;;;27.20;99.90;;;;;;5050771;28;20212;-56
2022/08/29 12:31:02;;;;;;;2.88;1.67;;;26.90;99.90;;;;;;5050972;28;20200;-57
2022/08/29 12:33:53;;;;;;;1.67;1.30;;;26.60;99.90;;;;;;5083132;28;20173;-58
2022/08/29 12:36:35;;;;;;;3.05;1.40;;;27.50;99.90;;;;;;5050807;28;20204;-58
2022/08/29 12:39:25;;;;;;;2.78;1.65;;;28.40;99.90;;;;;;5050936;28;20255;-58
2022/08/29 12:42:26;;;;;;;2.25;1.50;;;30.70;99.90;;;;;;5051063;28;20205;-59
2022/08/29 12:45:22;;;;;;;3.38;1.60;;;32.60;99.90;;;;;;5050780;28;20165;-59
2022/08/29 12:47:57;;;;;;;5.65;1.60;;;34.90;99.90;;;;;;5050310;28;20254;-58
2022/08/29 12:50:29;;;;;;;5.57;1.65;;;36.60;99.90;;;;;;5050795;28;20173;-57
2022/08/29 12:53:14;;;;;;;2.15;1.30;;;36.00;99.90;;;;;;5050748;28;20539;-58
2022/08/29 12:55:43;;;;;;;3.38;1.63;;;37.00;99.90;;;;;;5050713;28;20172;-58
2022/08/29 12:58:11;;;;;;;6.80;2.40;;;37.70;99.90;;;;;;5050849;28;20176;-58
2022/08/29 13:00:37;;;;;;;2.85;1.55;;;38.60;99.90;;;;;;5050574;28;20259;-58
2022/08/29 13:03:20;;;;;;;2.53;1.52;;;37.80;99.30;;;;;;5050768;28;20299;-57
2022/08/29 13:05:46;;;;;;;3.10;1.60;;;35.80;99.30;;;;;;5052978;28;20218;-58
2022/08/29 13:08:24;;;;;;;5.50;1.90;;;33.70;99.50;;;;;;5054580;28;20295;-58
2022/08/29 13:10:56;;;;;;;4.55;1.77;;;32.00;99.90;;;;;;5054623;28;20162;-58